sensor_id;sensor_type;location;lat;lon;timestamp;P1;durP1;ratioP1;P2;durP2;ratioP2
45388;SDS011;31127;52.078;4.370;2023-01-23T00:04:04;20.98;;;13.13;;
45388;SDS011;31127;52.078;4.370;2023-01-23T00:14:01;24.45;;;12.60;;
45388;SDS011;31127;52.078;4.370;2023-01-23T00:18:57;29.57;;;13.37;;
45388;SDS011;31127;52.078;4.370;2023-01-23T00:23:53;22.83;;;12.57;;
45388;SDS011;31127;52.078;4.370;2023-01-23T00:28:49;22.95;;;13.63;;
45388;SDS011;31127;52.078;4.370;2023-01-23T00:33:45;23.30;;;13.73;;
45388;SDS011;31127;52.078;4.370;2023-01-23T00:44:01;26.60;;;13.05;;
45388;SDS011;31127;52.078;4.370;2023-01-23T00:48:57;21.75;;;13.45;;
45388;SDS011;31127;52.078;4.370;2023-01-23T00:58:54;24.10;;;13.18;;
45388;SDS011;31127;52.078;4.370;2023-01-23T01:03:50;24.70;;;12.60;;
45388;SDS011;31127;52.078;4.370;2023-01-23T01:08:46;23.60;;;12.05;;
45388;SDS011;31127;52.078;4.370;2023-01-23T01:13:42;28.45;;;13.27;;
45388;SDS011;31127;52.078;4.370;2023-01-23T01:18:37;22.33;;;13.18;;
45388;SDS011;31127;52.078;4.370;2023-01-23T01:23:33;22.58;;;12.38;;
45388;SDS011;31127;52.078;4.370;2023-01-23T01:28:29;22.60;;;12.25;;
45388;SDS011;31127;52.078;4.370;2023-01-23T01:33:25;23.15;;;11.82;;
45388;SDS011;31127;52.078;4.370;2023-01-23T01:38:21;24.77;;;12.75;;
45388;SDS011;31127;52.078;4.370;2023-01-23T01:43:17;21.33;;;12.35;;
45388;SDS011;31127;52.078;4.370;2023-01-23T01:48:13;22.45;;;11.77;;
45388;SDS011;31127;52.078;4.370;2023-01-23T01:53:09;25.13;;;12.80;;
45388;SDS011;31127;52.078;4.370;2023-01-23T01:58:05;24.70;;;12.65;;
45388;SDS011;31127;52.078;4.370;2023-01-23T02:03:02;25.35;;;12.32;;
45388;SDS011;31127;52.078;4.370;2023-01-23T02:08:02;23.02;;;13.43;;
45388;SDS011;31127;52.078;4.370;2023-01-23T02:13:19;25.65;;;13.20;;
45388;SDS011;31127;52.078;4.370;2023-01-23T02:18:14;24.10;;;12.25;;
45388;SDS011;31127;52.078;4.370;2023-01-23T02:23:26;25.73;;;13.55;;
45388;SDS011;31127;52.078;4.370;2023-01-23T02:28:23;29.27;;;13.33;;
45388;SDS011;31127;52.078;4.370;2023-01-23T02:38:27;30.70;;;13.35;;
45388;SDS011;31127;52.078;4.370;2023-01-23T02:43:25;24.30;;;13.23;;
45388;SDS011;31127;52.078;4.370;2023-01-23T02:48:27;27.85;;;14.55;;
45388;SDS011;31127;52.078;4.370;2023-01-23T02:53:23;27.05;;;13.23;;
45388;SDS011;31127;52.078;4.370;2023-01-23T02:58:20;30.92;;;15.27;;
45388;SDS011;31127;52.078;4.370;2023-01-23T03:03:35;25.00;;;13.30;;
45388;SDS011;31127;52.078;4.370;2023-01-23T03:08:30;33.03;;;13.13;;
45388;SDS011;31127;52.078;4.370;2023-01-23T03:13:30;30.48;;;13.65;;
45388;SDS011;31127;52.078;4.370;2023-01-23T03:18:27;35.80;;;13.80;;
45388;SDS011;31127;52.078;4.370;2023-01-23T03:23:24;30.73;;;13.82;;
45388;SDS011;31127;52.078;4.370;2023-01-23T03:28:19;31.10;;;14.60;;
45388;SDS011;31127;52.078;4.370;2023-01-23T03:33:34;27.67;;;14.10;;
45388;SDS011;31127;52.078;4.370;2023-01-23T03:38:30;31.55;;;16.35;;
45388;SDS011;31127;52.078;4.370;2023-01-23T03:43:29;27.75;;;15.18;;
45388;SDS011;31127;52.078;4.370;2023-01-23T03:48:24;34.55;;;16.05;;
45388;SDS011;31127;52.078;4.370;2023-01-23T03:53:20;35.72;;;16.67;;
45388;SDS011;31127;52.078;4.370;2023-01-23T03:58:17;38.90;;;15.50;;
45388;SDS011;31127;52.078;4.370;2023-01-23T04:03:14;29.52;;;15.20;;
45388;SDS011;31127;52.078;4.370;2023-01-23T04:08:10;37.33;;;16.17;;
45388;SDS011;31127;52.078;4.370;2023-01-23T04:13:05;33.17;;;16.25;;
45388;SDS011;31127;52.078;4.370;2023-01-23T04:18:01;27.95;;;14.15;;
45388;SDS011;31127;52.078;4.370;2023-01-23T04:22:57;35.95;;;16.75;;
45388;SDS011;31127;52.078;4.370;2023-01-23T04:27:54;33.85;;;15.20;;
45388;SDS011;31127;52.078;4.370;2023-01-23T04:32:50;36.03;;;16.03;;
45388;SDS011;31127;52.078;4.370;2023-01-23T04:37:47;33.20;;;14.40;;
45388;SDS011;31127;52.078;4.370;2023-01-23T04:42:43;31.25;;;14.95;;
45388;SDS011;31127;52.078;4.370;2023-01-23T04:47:46;33.53;;;16.40;;
45388;SDS011;31127;52.078;4.370;2023-01-23T04:52:42;36.08;;;16.70;;
45388;SDS011;31127;52.078;4.370;2023-01-23T04:57:38;34.67;;;16.07;;
45388;SDS011;31127;52.078;4.370;2023-01-23T05:02:52;30.55;;;14.65;;
45388;SDS011;31127;52.078;4.370;2023-01-23T05:07:48;31.38;;;15.30;;
45388;SDS011;31127;52.078;4.370;2023-01-23T05:12:45;31.13;;;15.05;;
45388;SDS011;31127;52.078;4.370;2023-01-23T05:17:41;27.48;;;14.98;;
45388;SDS011;31127;52.078;4.370;2023-01-23T05:22:38;35.17;;;16.25;;
45388;SDS011;31127;52.078;4.370;2023-01-23T05:27:46;30.63;;;15.52;;
45388;SDS011;31127;52.078;4.370;2023-01-23T05:32:41;30.92;;;14.95;;
45388;SDS011;31127;52.078;4.370;2023-01-23T05:37:42;36.45;;;17.25;;
45388;SDS011;31127;52.078;4.370;2023-01-23T05:42:37;32.22;;;17.23;;
45388;SDS011;31127;52.078;4.370;2023-01-23T05:47:53;43.53;;;19.15;;
45388;SDS011;31127;52.078;4.370;2023-01-23T05:52:50;37.03;;;17.55;;
45388;SDS011;31127;52.078;4.370;2023-01-23T05:57:46;38.33;;;17.63;;
45388;SDS011;31127;52.078;4.370;2023-01-23T06:03:12;42.55;;;17.67;;
45388;SDS011;31127;52.078;4.370;2023-01-23T06:08:27;40.22;;;17.98;;
45388;SDS011;31127;52.078;4.370;2023-01-23T06:13:23;37.10;;;17.90;;
45388;SDS011;31127;52.078;4.370;2023-01-23T06:18:20;36.13;;;18.20;;
45388;SDS011;31127;52.078;4.370;2023-01-23T06:23:16;40.17;;;17.60;;
45388;SDS011;31127;52.078;4.370;2023-01-23T06:28:11;38.53;;;17.25;;
45388;SDS011;31127;52.078;4.370;2023-01-23T06:33:07;31.80;;;16.25;;
45388;SDS011;31127;52.078;4.370;2023-01-23T06:38:08;33.75;;;17.17;;
45388;SDS011;31127;52.078;4.370;2023-01-23T06:43:04;31.23;;;16.52;;
45388;SDS011;31127;52.078;4.370;2023-01-23T06:48:00;35.58;;;18.15;;
45388;SDS011;31127;52.078;4.370;2023-01-23T06:52:56;35.13;;;16.17;;
45388;SDS011;31127;52.078;4.370;2023-01-23T06:57:52;43.80;;;18.80;;
45388;SDS011;31127;52.078;4.370;2023-01-23T07:02:47;35.47;;;17.23;;
45388;SDS011;31127;52.078;4.370;2023-01-23T07:07:43;37.35;;;17.25;;
45388;SDS011;31127;52.078;4.370;2023-01-23T07:12:47;39.42;;;19.67;;
45388;SDS011;31127;52.078;4.370;2023-01-23T07:17:42;34.50;;;17.40;;
45388;SDS011;31127;52.078;4.370;2023-01-23T07:22:38;33.33;;;18.13;;
45388;SDS011;31127;52.078;4.370;2023-01-23T07:27:33;35.87;;;16.50;;
45388;SDS011;31127;52.078;4.370;2023-01-23T07:32:44;38.03;;;18.83;;
45388;SDS011;31127;52.078;4.370;2023-01-23T07:37:39;34.30;;;17.70;;
45388;SDS011;31127;52.078;4.370;2023-01-23T07:42:35;41.50;;;18.85;;
45388;SDS011;31127;52.078;4.370;2023-01-23T07:47:30;33.55;;;17.58;;
45388;SDS011;31127;52.078;4.370;2023-01-23T07:52:26;36.25;;;18.75;;
45388;SDS011;31127;52.078;4.370;2023-01-23T07:57:21;38.00;;;19.23;;
45388;SDS011;31127;52.078;4.370;2023-01-23T08:02:16;36.78;;;17.85;;
45388;SDS011;31127;52.078;4.370;2023-01-23T08:07:12;35.22;;;17.00;;
45388;SDS011;31127;52.078;4.370;2023-01-23T08:12:08;35.83;;;18.55;;
45388;SDS011;31127;52.078;4.370;2023-01-23T08:17:03;36.13;;;18.38;;
45388;SDS011;31127;52.078;4.370;2023-01-23T08:21:59;31.42;;;17.75;;
45388;SDS011;31127;52.078;4.370;2023-01-23T08:26:55;35.75;;;18.33;;
45388;SDS011;31127;52.078;4.370;2023-01-23T08:31:50;36.80;;;19.00;;
45388;SDS011;31127;52.078;4.370;2023-01-23T08:36:49;32.22;;;19.02;;
45388;SDS011;31127;52.078;4.370;2023-01-23T08:41:44;33.05;;;16.67;;
45388;SDS011;31127;52.078;4.370;2023-01-23T08:46:40;31.83;;;17.40;;
45388;SDS011;31127;52.078;4.370;2023-01-23T08:51:35;29.33;;;17.10;;
45388;SDS011;31127;52.078;4.370;2023-01-23T08:56:31;34.85;;;17.80;;
45388;SDS011;31127;52.078;4.370;2023-01-23T09:01:26;31.65;;;17.70;;
45388;SDS011;31127;52.078;4.370;2023-01-23T09:06:22;29.65;;;16.30;;
45388;SDS011;31127;52.078;4.370;2023-01-23T09:11:17;29.15;;;17.42;;
45388;SDS011;31127;52.078;4.370;2023-01-23T09:16:13;30.35;;;17.50;;
45388;SDS011;31127;52.078;4.370;2023-01-23T09:21:09;34.45;;;17.27;;
45388;SDS011;31127;52.078;4.370;2023-01-23T09:26:06;31.25;;;18.40;;
45388;SDS011;31127;52.078;4.370;2023-01-23T09:31:04;32.13;;;17.42;;
45388;SDS011;31127;52.078;4.370;2023-01-23T09:36:01;37.15;;;17.98;;
45388;SDS011;31127;52.078;4.370;2023-01-23T09:40:57;33.20;;;17.80;;
45388;SDS011;31127;52.078;4.370;2023-01-23T09:51:01;30.27;;;16.30;;
45388;SDS011;31127;52.078;4.370;2023-01-23T10:00:52;28.42;;;16.70;;
45388;SDS011;31127;52.078;4.370;2023-01-23T10:05:57;31.27;;;17.70;;
45388;SDS011;31127;52.078;4.370;2023-01-23T10:10:59;27.05;;;15.60;;
45388;SDS011;31127;52.078;4.370;2023-01-23T10:21:06;30.33;;;17.30;;
45388;SDS011;31127;52.078;4.370;2023-01-23T10:26:07;30.67;;;16.52;;
45388;SDS011;31127;52.078;4.370;2023-01-23T10:31:06;28.55;;;15.45;;
45388;SDS011;31127;52.078;4.370;2023-01-23T10:36:02;24.25;;;15.40;;
45388;SDS011;31127;52.078;4.370;2023-01-23T10:41:02;25.55;;;15.85;;
45388;SDS011;31127;52.078;4.370;2023-01-23T10:46:12;23.83;;;15.15;;
45388;SDS011;31127;52.078;4.370;2023-01-23T10:56:22;27.35;;;14.43;;
45388;SDS011;31127;52.078;4.370;2023-01-23T11:01:24;29.23;;;16.25;;
45388;SDS011;31127;52.078;4.370;2023-01-23T11:06:21;28.27;;;16.00;;
45388;SDS011;31127;52.078;4.370;2023-01-23T11:11:21;29.77;;;15.15;;
45388;SDS011;31127;52.078;4.370;2023-01-23T11:16:18;25.83;;;15.93;;
45388;SDS011;31127;52.078;4.370;2023-01-23T11:21:27;23.20;;;14.48;;
45388;SDS011;31127;52.078;4.370;2023-01-23T11:26:30;19.92;;;14.05;;
45388;SDS011;31127;52.078;4.370;2023-01-23T11:31:26;22.92;;;14.00;;
45388;SDS011;31127;52.078;4.370;2023-01-23T11:37:03;21.15;;;13.60;;
45388;SDS011;31127;52.078;4.370;2023-01-23T11:42:01;16.25;;;11.65;;
45388;SDS011;31127;52.078;4.370;2023-01-23T11:56:55;14.13;;;11.65;;
45388;SDS011;31127;52.078;4.370;2023-01-23T12:02:14;15.07;;;11.13;;
45388;SDS011;31127;52.078;4.370;2023-01-23T12:07:22;15.38;;;9.88;;
45388;SDS011;31127;52.078;4.370;2023-01-23T12:12:52;12.77;;;10.82;;
45388;SDS011;31127;52.078;4.370;2023-01-23T12:18:03;12.75;;;9.68;;
45388;SDS011;31127;52.078;4.370;2023-01-23T12:33:37;10.25;;;8.52;;
45388;SDS011;31127;52.078;4.370;2023-01-23T12:39:03;8.75;;;7.47;;
45388;SDS011;31127;52.078;4.370;2023-01-23T12:44:17;9.02;;;7.47;;
45388;SDS011;31127;52.078;4.370;2023-01-23T12:49:28;9.30;;;7.35;;
45388;SDS011;31127;52.078;4.370;2023-01-23T12:54:39;9.38;;;7.80;;
45388;SDS011;31127;52.078;4.370;2023-01-23T12:59:56;8.93;;;7.47;;
45388;SDS011;31127;52.078;4.370;2023-01-23T13:10:12;11.52;;;8.57;;
45388;SDS011;31127;52.078;4.370;2023-01-23T13:25:32;14.27;;;10.77;;
45388;SDS011;31127;52.078;4.370;2023-01-23T13:40:37;10.77;;;8.20;;
45388;SDS011;31127;52.078;4.370;2023-01-23T13:45:52;11.25;;;8.90;;
45388;SDS011;31127;52.078;4.370;2023-01-23T13:50:48;12.67;;;9.40;;
45388;SDS011;31127;52.078;4.370;2023-01-23T13:55:45;10.55;;;7.85;;
45388;SDS011;31127;52.078;4.370;2023-01-23T14:01:19;9.13;;;7.00;;
45388;SDS011;31127;52.078;4.370;2023-01-23T14:06:35;9.95;;;6.40;;
45388;SDS011;31127;52.078;4.370;2023-01-23T14:11:34;7.78;;;6.88;;
45388;SDS011;31127;52.078;4.370;2023-01-23T14:16:31;7.68;;;6.05;;
45388;SDS011;31127;52.078;4.370;2023-01-23T14:21:28;7.70;;;6.43;;
45388;SDS011;31127;52.078;4.370;2023-01-23T14:26:25;7.65;;;6.05;;
45388;SDS011;31127;52.078;4.370;2023-01-23T14:31:25;8.43;;;6.35;;
45388;SDS011;31127;52.078;4.370;2023-01-23T14:36:20;13.18;;;7.30;;
45388;SDS011;31127;52.078;4.370;2023-01-23T14:41:16;11.25;;;7.60;;
45388;SDS011;31127;52.078;4.370;2023-01-23T14:46:17;11.32;;;6.55;;
45388;SDS011;31127;52.078;4.370;2023-01-23T14:51:23;9.40;;;6.53;;
45388;SDS011;31127;52.078;4.370;2023-01-23T14:56:19;8.90;;;7.10;;
45388;SDS011;31127;52.078;4.370;2023-01-23T15:01:15;8.18;;;6.25;;
45388;SDS011;31127;52.078;4.370;2023-01-23T15:06:12;11.40;;;7.13;;
45388;SDS011;31127;52.078;4.370;2023-01-23T15:11:08;14.43;;;8.35;;
45388;SDS011;31127;52.078;4.370;2023-01-23T15:16:10;15.05;;;9.20;;
45388;SDS011;31127;52.078;4.370;2023-01-23T15:21:07;13.77;;;9.07;;
45388;SDS011;31127;52.078;4.370;2023-01-23T15:31:04;18.20;;;8.70;;
45388;SDS011;31127;52.078;4.370;2023-01-23T15:36:04;13.73;;;8.30;;
45388;SDS011;31127;52.078;4.370;2023-01-23T15:41:06;11.60;;;6.85;;
45388;SDS011;31127;52.078;4.370;2023-01-23T15:46:01;10.90;;;6.65;;
45388;SDS011;31127;52.078;4.370;2023-01-23T15:50:57;11.85;;;6.95;;
45388;SDS011;31127;52.078;4.370;2023-01-23T15:55:53;10.75;;;6.38;;
45388;SDS011;31127;52.078;4.370;2023-01-23T16:00:51;11.40;;;7.63;;
45388;SDS011;31127;52.078;4.370;2023-01-23T16:05:46;11.10;;;6.90;;
45388;SDS011;31127;52.078;4.370;2023-01-23T16:10:42;10.68;;;7.20;;
45388;SDS011;31127;52.078;4.370;2023-01-23T16:15:37;12.13;;;8.25;;
45388;SDS011;31127;52.078;4.370;2023-01-23T16:20:35;11.45;;;7.55;;
45388;SDS011;31127;52.078;4.370;2023-01-23T16:25:34;13.98;;;7.70;;
45388;SDS011;31127;52.078;4.370;2023-01-23T16:30:30;12.68;;;7.22;;
45388;SDS011;31127;52.078;4.370;2023-01-23T16:35:25;11.98;;;8.45;;
45388;SDS011;31127;52.078;4.370;2023-01-23T16:40:22;12.80;;;7.40;;
45388;SDS011;31127;52.078;4.370;2023-01-23T16:50:31;12.63;;;7.10;;
45388;SDS011;31127;52.078;4.370;2023-01-23T16:55:35;12.32;;;7.68;;
45388;SDS011;31127;52.078;4.370;2023-01-23T17:00:33;17.00;;;7.70;;
45388;SDS011;31127;52.078;4.370;2023-01-23T17:05:28;14.38;;;8.88;;
45388;SDS011;31127;52.078;4.370;2023-01-23T17:10:24;14.27;;;8.75;;
45388;SDS011;31127;52.078;4.370;2023-01-23T17:15:25;14.95;;;8.88;;
45388;SDS011;31127;52.078;4.370;2023-01-23T17:20:21;11.27;;;7.68;;
45388;SDS011;31127;52.078;4.370;2023-01-23T17:25:18;15.63;;;9.63;;
45388;SDS011;31127;52.078;4.370;2023-01-23T17:30:15;12.00;;;7.70;;
45388;SDS011;31127;52.078;4.370;2023-01-23T17:35:16;13.25;;;8.45;;
45388;SDS011;31127;52.078;4.370;2023-01-23T17:40:13;14.27;;;9.85;;
45388;SDS011;31127;52.078;4.370;2023-01-23T17:45:12;12.98;;;9.15;;
45388;SDS011;31127;52.078;4.370;2023-01-23T17:50:22;15.82;;;9.95;;
45388;SDS011;31127;52.078;4.370;2023-01-23T17:55:22;13.73;;;9.07;;
45388;SDS011;31127;52.078;4.370;2023-01-23T18:00:38;13.90;;;8.98;;
45388;SDS011;31127;52.078;4.370;2023-01-23T18:05:33;13.25;;;7.63;;
45388;SDS011;31127;52.078;4.370;2023-01-23T18:10:29;12.45;;;7.72;;
45388;SDS011;31127;52.078;4.370;2023-01-23T18:15:30;13.45;;;8.55;;
45388;SDS011;31127;52.078;4.370;2023-01-23T18:20:27;14.27;;;8.95;;
45388;SDS011;31127;52.078;4.370;2023-01-23T18:25:23;16.50;;;10.40;;
45388;SDS011;31127;52.078;4.370;2023-01-23T18:45:34;14.52;;;9.57;;
45388;SDS011;31127;52.078;4.370;2023-01-23T18:50:30;17.00;;;10.00;;
45388;SDS011;31127;52.078;4.370;2023-01-23T18:55:29;14.38;;;10.63;;
45388;SDS011;31127;52.078;4.370;2023-01-23T19:00:28;17.30;;;11.50;;
45388;SDS011;31127;52.078;4.370;2023-01-23T19:05:31;18.02;;;12.13;;
45388;SDS011;31127;52.078;4.370;2023-01-23T19:10:28;16.17;;;11.00;;
45388;SDS011;31127;52.078;4.370;2023-01-23T19:15:26;19.98;;;12.52;;
45388;SDS011;31127;52.078;4.370;2023-01-23T19:20:25;17.65;;;12.30;;
45388;SDS011;31127;52.078;4.370;2023-01-23T19:25:22;19.60;;;12.05;;
45388;SDS011;31127;52.078;4.370;2023-01-23T19:30:18;19.35;;;12.57;;
45388;SDS011;31127;52.078;4.370;2023-01-23T19:35:14;21.20;;;13.55;;
45388;SDS011;31127;52.078;4.370;2023-01-23T19:40:11;17.25;;;12.25;;
45388;SDS011;31127;52.078;4.370;2023-01-23T19:45:16;16.73;;;12.23;;
45388;SDS011;31127;52.078;4.370;2023-01-23T19:50:12;24.35;;;14.40;;
45388;SDS011;31127;52.078;4.370;2023-01-23T19:55:33;20.65;;;12.93;;
45388;SDS011;31127;52.078;4.370;2023-01-23T20:00:28;20.55;;;13.05;;
45388;SDS011;31127;52.078;4.370;2023-01-23T20:05:25;20.27;;;13.88;;
45388;SDS011;31127;52.078;4.370;2023-01-23T20:10:20;21.73;;;13.18;;
45388;SDS011;31127;52.078;4.370;2023-01-23T20:15:17;21.00;;;14.90;;
45388;SDS011;31127;52.078;4.370;2023-01-23T20:20:13;23.42;;;16.13;;
45388;SDS011;31127;52.078;4.370;2023-01-23T20:25:12;23.42;;;15.50;;
45388;SDS011;31127;52.078;4.370;2023-01-23T20:30:10;23.00;;;15.30;;
45388;SDS011;31127;52.078;4.370;2023-01-23T20:35:06;25.45;;;16.13;;
45388;SDS011;31127;52.078;4.370;2023-01-23T20:40:02;27.33;;;17.02;;
45388;SDS011;31127;52.078;4.370;2023-01-23T20:44:58;27.55;;;18.02;;
45388;SDS011;31127;52.078;4.370;2023-01-23T20:49:53;24.40;;;17.20;;
45388;SDS011;31127;52.078;4.370;2023-01-23T20:54:49;30.88;;;19.13;;
45388;SDS011;31127;52.078;4.370;2023-01-23T20:59:44;28.85;;;19.30;;
45388;SDS011;31127;52.078;4.370;2023-01-23T21:04:42;28.15;;;18.90;;
45388;SDS011;31127;52.078;4.370;2023-01-23T21:14:40;30.70;;;19.55;;
45388;SDS011;31127;52.078;4.370;2023-01-23T21:19:36;31.00;;;19.10;;
45388;SDS011;31127;52.078;4.370;2023-01-23T21:24:32;30.27;;;19.33;;
45388;SDS011;31127;52.078;4.370;2023-01-23T21:29:32;31.58;;;20.52;;
45388;SDS011;31127;52.078;4.370;2023-01-23T21:34:27;29.58;;;19.63;;
45388;SDS011;31127;52.078;4.370;2023-01-23T21:39:23;30.88;;;19.63;;
45388;SDS011;31127;52.078;4.370;2023-01-23T21:44:38;32.30;;;20.48;;
45388;SDS011;31127;52.078;4.370;2023-01-23T21:49:33;33.78;;;21.25;;
45388;SDS011;31127;52.078;4.370;2023-01-23T21:54:32;31.10;;;20.50;;
45388;SDS011;31127;52.078;4.370;2023-01-23T21:59:31;30.80;;;20.25;;
45388;SDS011;31127;52.078;4.370;2023-01-23T22:04:26;32.80;;;20.45;;
45388;SDS011;31127;52.078;4.370;2023-01-23T22:09:22;32.13;;;19.33;;
45388;SDS011;31127;52.078;4.370;2023-01-23T22:14:37;28.52;;;19.67;;
45388;SDS011;31127;52.078;4.370;2023-01-23T22:19:33;29.90;;;19.17;;
45388;SDS011;31127;52.078;4.370;2023-01-23T22:24:28;28.57;;;18.23;;
45388;SDS011;31127;52.078;4.370;2023-01-23T22:29:24;31.63;;;19.80;;
45388;SDS011;31127;52.078;4.370;2023-01-23T22:34:20;32.47;;;20.33;;
45388;SDS011;31127;52.078;4.370;2023-01-23T22:39:15;33.58;;;21.02;;
45388;SDS011;31127;52.078;4.370;2023-01-23T22:44:11;29.03;;;19.80;;
45388;SDS011;31127;52.078;4.370;2023-01-23T22:49:09;30.60;;;19.05;;
45388;SDS011;31127;52.078;4.370;2023-01-23T22:54:04;30.95;;;19.67;;
45388;SDS011;31127;52.078;4.370;2023-01-23T22:59:00;29.25;;;19.25;;
45388;SDS011;31127;52.078;4.370;2023-01-23T23:03:56;32.40;;;19.73;;
45388;SDS011;31127;52.078;4.370;2023-01-23T23:08:52;29.90;;;19.50;;
45388;SDS011;31127;52.078;4.370;2023-01-23T23:13:47;30.30;;;19.25;;
45388;SDS011;31127;52.078;4.370;2023-01-23T23:18:44;30.70;;;19.13;;
45388;SDS011;31127;52.078;4.370;2023-01-23T23:23:39;33.40;;;18.98;;
45388;SDS011;31127;52.078;4.370;2023-01-23T23:28:35;29.13;;;18.25;;
45388;SDS011;31127;52.078;4.370;2023-01-23T23:33:31;32.25;;;19.75;;
45388;SDS011;31127;52.078;4.370;2023-01-23T23:38:28;28.95;;;18.58;;
45388;SDS011;31127;52.078;4.370;2023-01-23T23:43:24;28.23;;;17.90;;
45388;SDS011;31127;52.078;4.370;2023-01-23T23:48:19;30.50;;;18.63;;
45388;SDS011;31127;52.078;4.370;2023-01-23T23:53:15;30.70;;;19.00;;
45388;SDS011;31127;52.078;4.370;2023-01-23T23:58:31;31.25;;;19.10;;
